Wetterstation Tischlerei-Herzog
Wetterdaten: aktuell Sonntag, 21.04.2019 22:46
Datum Zeit Temp. N Temp. S Temp. Htte Aussentemp. Temp.10m Temp. Bo Feuchte Htt Luftfeuchte Sonne Luftdruck Niederschl. Wind Richtung Richtung Taupunkt empf. Temp.
21.04.2019 22:46 9,7 C 11,1 C 14,8 C 9,7 C 9,0 C 15,5 C 20 % 20 % 61 % 1014,3 hPa 0,0 l/m 4,0 km/h N 355 -12,1 C 9,7 C
21.04.2019 21:46 12,0 C 12,9 C 14,8 C 12,0 C 9,0 C 15,7 C 20 % 20 % 61 % 1013,9 hPa 0,0 l/m 4,0 km/h N 355 -10,2 C 12,0 C
21.04.2019 20:46 13,1 C 14,1 C 14,8 C 13,1 C 9,0 C 15,8 C 20 % 20 % 61 % 1013,7 hPa 0,0 l/m 4,0 km/h N 355 -9,3 C 13,1 C
21.04.2019 19:46 17,4 C 17,5 C 17,8 C 17,4 C 9,0 C 15,6 C 20 % 20 % 61 % 1013,1 hPa 0,0 l/m 4,0 km/h N 355 -5,8 C 17,4 C
21.04.2019 18:46 19,0 C 19,5 C 20,9 C 19,0 C 9,0 C 15,2 C 20 % 20 % 61 % 1012,8 hPa 0,0 l/m 4,0 km/h N 355 -4,5 C 19,0 C
21.04.2019 17:46 20,1 C 23,3 C 21,8 C 20,1 C 9,0 C 14,7 C 20 % 20 % 61 % 1013,7 hPa 0,0 l/m 4,0 km/h N 355 -3,5 C 20,1 C
21.04.2019 16:46 21,0 C 25,4 C 22,8 C 21,0 C 9,0 C 14,0 C 20 % 20 % 61 % 1013,6 hPa 0,0 l/m 4,0 km/h N 355 -2,8 C 21,0 C
21.04.2019 15:46 21,3 C 25,4 C 23,7 C 21,3 C 9,0 C 13,3 C 20 % 20 % 61 % 1014,6 hPa 0,0 l/m 4,0 km/h N 355 -2,6 C 21,3 C
21.04.2019 14:46 21,0 C 24,8 C 23,8 C 21,0 C 9,0 C 12,7 C 20 % 20 % 61 % 1015,7 hPa 0,0 l/m 4,0 km/h N 355 -2,8 C 21,0 C
21.04.2019 13:46 20,2 C 24,8 C 22,6 C 20,2 C 9,0 C 12,1 C 20 % 20 % 61 % 1015,8 hPa 0,0 l/m 4,0 km/h N 355 -3,5 C 20,2 C
21.04.2019 12:46 19,7 C 23,1 C 22,2 C 19,7 C 9,0 C 11,7 C 20 % 20 % 61 % 1016,9 hPa 0,0 l/m 4,0 km/h N 355 -3,9 C 19,7 C
21.04.2019 11:46 18,3 C 21,2 C 20,8 C 18,3 C 9,0 C 11,5 C 20 % 20 % 61 % 1018,2 hPa 0,0 l/m 4,0 km/h N 355 -5,0 C 18,3 C
21.04.2019 10:46 16,8 C 18,2 C 18,5 C 16,8 C 9,0 C 11,5 C 20 % 20 % 61 % 1018,4 hPa 0,0 l/m 4,0 km/h N 355 -6,3 C 16,8 C
21.04.2019 09:46 17,2 C 15,3 C 14,4 C 15,3 C 9,0 C 11,7 C 20 % 20 % 61 % 1019,7 hPa 0,0 l/m 4,0 km/h N 355 -7,5 C 15,3 C
21.04.2019 08:46 15,1 C 9,5 C 8,9 C 9,5 C 9,0 C 12,0 C 27 % 26 % 61 % 1020,6 hPa 0,0 l/m 4,0 km/h N 355 -9,0 C 9,5 C
21.04.2019 07:46 10,8 C 4,8 C 2,8 C 4,8 C 9,0 C 12,2 C 60 % 39 % 61 % 1021,4 hPa 0,0 l/m 4,0 km/h N 355 -8,0 C 4,8 C
21.04.2019 06:46 1,8 C 2,4 C 1,2 C 1,8 C 9,0 C 12,6 C 60 % 55 % 61 % 1021,9 hPa 0,0 l/m 4,0 km/h N 355 -6,3 C 1,8 C
21.04.2019 05:46 1,7 C 2,9 C 1,7 C 1,7 C 9,0 C 12,9 C 60 % 55 % 61 % 1021,9 hPa 0,0 l/m 4,0 km/h N 355 -6,4 C 1,7 C
21.04.2019 04:46 2,4 C 3,0 C 2,4 C 2,4 C 9,0 C 13,3 C 57 % 53 % 61 % 1021,8 hPa 0,0 l/m 4,0 km/h N 355 -6,2 C 2,4 C
21.04.2019 03:46 3,5 C 4,6 C 3,5 C 3,5 C 9,0 C 13,7 C 54 % 50 % 61 % 1022,6 hPa 0,0 l/m 4,0 km/h N 355 -5,9 C 3,5 C
21.04.2019 02:46 4,0 C 5,5 C 4,4 C 4,0 C 9,0 C 14,0 C 52 % 47 % 61 % 1022,5 hPa 0,0 l/m 4,0 km/h N 355 -6,3 C 4,0 C
21.04.2019 01:46 4,9 C 6,2 C 5,4 C 4,9 C 9,0 C 14,4 C 47 % 45 % 61 % 1023,4 hPa 0,0 l/m 4,0 km/h N 355 -6,0 C 4,9 C
21.04.2019 00:46 6,0 C 7,6 C 14,5 C 6,0 C 9,0 C 14,7 C 20 % 40 % 61 % 1023,2 hPa 0,0 l/m 4,0 km/h N 355 -6,6 C 6,0 C
20.04.2019 23:46 7,1 C 8,9 C 14,5 C 7,1 C 9,0 C 15,0 C 20 % 34 % 61 % 1024,1 hPa 0,0 l/m 4,0 km/h N 355 -7,7 C 7,1 C
20.04.2019 23:06 8,1 C 9,7 C 14,5 C 8,1 C 9,0 C 15,2 C 20 % 29 % 61 % 1024,0 hPa 0,0 l/m 4,0 km/h N 355 -8,8 C 8,1 C
_ Min-Zeit 06:06 06:06 06:16 06:06 23:06 10:46 23:06 08:56 - 18:26 - 23:06 - - 22:46 06:06
Minimum _ 1,2 C 2,0 C 1,0 C 1,2 C 9,0 C 11,5 C 20 % 20 % - 1012,8 hPa - 4,0 km/h - - -12,1 C 1,2 C
_ Max-Zeit 16:11 15:06 14:51 16:11 23:06 20:31 06:31 05:46 23:06 00:01 23:06 23:06 - - 16:11 16:11
Maximum _ 21,7 C 29,4 C 24,0 C 21,7 C 9,0 C 15,8 C 61 % 55 % 61 % 1024,2 hPa 0,0 l/m 4,0 km/h
N
- - -2,2 C 21,7 C
Durchschnitt _ 12,5 C 13,7 C 14,1 C 11,9 C 9,0 C 13,7 C 29 % 30 % #0 min. 1018,8 hPa #0,0 l/m 4,0 km/h N - -6,4 C 11,9 C
Tischlerei Herzog